Time;durP1;ratioP1;P1;durP2;ratioP2;P2;SDS_P1;SDS_P2;PMS_P1;PMS_P2;Temp;Humidity;BMP_temperature;BMP_pressure;BME280_temperature;BME280_humidity;BME280_pressure;Samples;Min_cycle;Max_cycle;Signal;HPM_P1;HPM_P2
2022/03/06 00:01:52;;;;;;;;;;;;;;;29.28;60.41;100910.09;4975286;28;70124;-39
2022/03/06 00:04:22;;;;;;;;;;;;;;;29.31;60.33;100912.38;4978334;27;66649;-38
2022/03/06 00:06:51;;;;;;;;;;;;;;;29.34;60.61;100909.25;4978983;27;71267;-38
2022/03/06 00:09:21;;;;;;;;;;;;;;;29.37;60.00;100914.25;4977318;28;66853;-38
2022/03/06 00:11:52;;;;;;;;;;;;;;;29.38;60.51;100915.06;4979390;28;69403;-39
2022/03/06 00:14:22;;;;;;;;;;;;;;;29.38;59.91;100910.50;4976201;28;66365;-38
2022/03/06 00:16:54;;;;;;;;;;;;;;;29.42;60.85;100918.19;4979441;27;69903;-38
2022/03/06 00:19:24;;;;;;;;;;;;;;;29.45;60.18;100920.44;4978666;28;66760;-38
2022/03/06 00:21:54;;;;;;;;;;;;;;;29.32;60.72;100900.53;4963311;28;70260;-38
2022/03/06 00:24:24;;;;;;;;;;;;;;;29.47;60.89;100929.19;4979955;27;65633;-38
2022/03/06 00:26:53;;;;;;;;;;;;;;;29.48;60.80;100933.56;4980074;27;69921;-39
2022/03/06 00:29:23;;;;;;;;;;;;;;;29.49;61.05;100932.53;4980047;27;66502;-39
2022/03/06 00:31:53;;;;;;;;;;;;;;;29.51;61.02;100936.69;4976691;28;70418;-38
2022/03/06 00:34:22;;;;;;;;;;;;;;;29.53;61.13;100947.25;4978876;28;66910;-39
2022/03/06 00:36:52;;;;;;;;;;;;;;;29.55;60.84;100945.19;4991671;28;69907;-37
2022/03/06 00:39:22;;;;;;;;;;;;;;;29.56;61.04;100944.13;4973775;28;66898;-39
2022/03/06 00:41:52;;;;;;;;;;;;;;;29.59;61.37;100949.16;4961033;28;69088;-38
2022/03/06 00:44:22;;;;;;;;;;;;;;;29.60;61.66;100956.22;4977849;28;65547;-38
2022/03/06 00:46:52;;;;;;;;;;;;;;;29.62;61.16;100951.44;4978697;28;70323;-37
2022/03/06 00:49:22;;;;;;;;;;;;;;;29.63;61.87;100961.22;4990056;28;65722;-38
2022/03/06 00:51:52;;;;;;;;;;;;;;;29.65;61.58;100952.91;4976956;28;70427;-38
2022/03/06 00:54:22;;;;;;;;;;;;;;;29.68;62.24;100952.50;4975063;28;66783;-38
2022/03/06 00:56:52;;;;;;;;;;;;;;;29.69;61.86;100965.78;4957631;28;70063;-38
2022/03/06 00:59:23;;;;;;;;;;;;;;;29.71;62.24;100955.59;4974652;28;65523;-38
2022/03/06 01:01:52;;;;;;;;;;;;;;;29.71;62.34;100957.47;4977480;27;70903;-38
2022/03/06 01:04:22;;;;;;;;;;;;;;;29.71;62.27;100950.19;4975861;28;66530;-39
2022/03/06 01:06:52;;;;;;;;;;;;;;;29.70;62.26;100964.75;4977216;27;70377;-39
2022/03/06 01:09:21;;;;;;;;;;;;;;;29.69;62.81;100965.78;4978347;28;66026;-38
2022/03/06 01:11:51;;;;;;;;;;;;;;;29.71;62.67;100969.13;4985100;28;70429;-37
2022/03/06 01:14:21;;;;;;;;;;;;;;;29.72;64.26;100965.38;4982579;28;66111;-38
2022/03/06 01:16:51;;;;;;;;;;;;;;;29.78;64.20;100975.38;4977846;28;70301;-39
2022/03/06 01:19:20;;;;;;;;;;;;;;;29.81;64.75;100974.94;4976383;28;65845;-38
2022/03/06 01:21:50;;;;;;;;;;;;;;;29.90;63.04;100977.41;4977742;27;69759;-38
2022/03/06 01:24:20;;;;;;;;;;;;;;;29.88;62.61;100985.72;4979118;27;66938;-38
2022/03/06 01:26:50;;;;;;;;;;;;;;;29.86;63.20;100984.28;4977922;28;69826;-37
2022/03/06 01:29:22;;;;;;;;;;;;;;;29.83;62.36;100983.66;4976899;28;66794;-38
2022/03/06 01:31:52;;;;;;;;;;;;;;;29.82;62.46;100982.00;4983982;27;69732;-38
2022/03/06 01:34:22;;;;;;;;;;;;;;;29.81;62.97;100988.47;4978896;27;66077;-38
2022/03/06 01:36:51;;;;;;;;;;;;;;;29.83;63.10;100990.94;4989456;28;70525;-37
2022/03/06 01:39:21;;;;;;;;;;;;;;;29.82;62.51;100992.81;4984773;27;66096;-37
2022/03/06 01:41:51;;;;;;;;;;;;;;;29.80;63.18;100988.66;4965398;27;70696;-37
2022/03/06 01:44:21;;;;;;;;;;;;;;;29.87;62.17;100988.66;4959731;28;66584;-37
2022/03/06 01:46:50;;;;;;;;;;;;;;;29.89;63.25;100997.38;4974520;28;69841;-37
2022/03/06 01:49:20;;;;;;;;;;;;;;;29.96;63.03;100998.19;4979907;28;67104;-38
2022/03/06 01:51:50;;;;;;;;;;;;;;;30.01;62.79;101004.63;4978618;28;70396;-37
2022/03/06 01:54:20;;;;;;;;;;;;;;;30.08;62.87;101009.19;4967163;28;65785;-38
2022/03/06 01:56:50;;;;;;;;;;;;;;;30.09;62.80;101009.00;4964639;28;69466;-38
2022/03/06 01:59:23;;;;;;;;;;;;;;;30.19;62.84;101001.25;4964992;28;67335;-39
2022/03/06 02:01:52;;;;;;;;;;;;;;;30.20;62.00;101007.47;4991910;28;69002;-37
2022/03/06 02:04:22;;;;;;;;;;;;;;;30.22;62.10;101008.97;4974842;28;66492;-37
2022/03/06 02:06:52;;;;;;;;;;;;;;;30.30;61.73;101002.50;4977948;28;69663;-41
2022/03/06 02:09:22;;;;;;;;;;;;;;;30.28;63.09;101008.13;4978310;28;66002;-37
2022/03/06 02:14:40;;;;;;;;;;;;;;;30.37;62.72;100999.75;4975023;28;66243;-38
2022/03/06 02:17:10;;;;;;;;;;;;;;;30.43;62.73;101007.88;4978107;28;69930;-37
2022/03/06 02:19:52;;;;;;;;;;;;;;;30.47;61.84;101025.31;4975938;28;66014;-39
2022/03/06 02:22:26;;;;;;;;;;;;;;;30.53;61.10;101018.22;4973361;28;69032;-39
2022/03/06 02:24:57;;;;;;;;;;;;;;;30.58;61.15;101026.53;4976079;28;66870;-39
2022/03/06 02:27:26;;;;;;;;;;;;;;;30.61;60.40;101012.56;4974610;28;70281;-41
2022/03/06 02:29:56;;;;;;;;;;;;;;;30.65;59.85;101024.66;4977860;28;66665;-40
2022/03/06 02:32:26;;;;;;;;;;;;;;;30.69;59.78;101025.88;4974063;28;70272;-41
2022/03/06 02:34:56;;;;;;;;;;;;;;;30.73;58.92;101021.69;4976399;28;65643;-38
2022/03/06 02:37:26;;;;;;;;;;;;;;;30.77;59.37;101021.25;4976025;28;69998;-38
2022/03/06 02:39:55;;;;;;;;;;;;;;;30.75;60.12;101017.94;4979585;27;67423;-38
2022/03/06 02:42:29;;;;;;;;;;;;;;;30.75;60.25;101018.75;4977527;28;68453;-40
2022/03/06 02:45:00;;;;;;;;;;;;;;;30.82;61.95;101007.94;4976419;28;65553;-40
2022/03/06 02:47:30;;;;;;;;;;;;;;;30.90;61.51;101010.38;4973859;28;69780;-40
2022/03/06 02:50:02;;;;;;;;;;;;;;;30.96;61.41;101020.34;4978280;28;66827;-40
2022/03/06 02:52:32;;;;;;;;;;;;;;;31.03;62.38;101010.28;4975958;28;69035;-38
2022/03/06 02:55:02;;;;;;;;;;;;;;;31.09;62.58;101004.00;4990027;28;66539;-39
2022/03/06 02:57:31;;;;;;;;;;;;;;;31.15;61.79;100997.72;4975885;28;70706;-39
2022/03/06 03:00:02;;;;;;;;;;;;;;;31.26;60.88;100989.91;4956661;28;66381;-39
2022/03/06 03:02:32;;;;;;;;;;;;;;;31.31;59.86;101000.91;4976665;27;68992;-39
2022/03/06 03:05:02;;;;;;;;;;;;;;;31.31;59.95;100995.50;4972704;28;65525;-40
2022/03/06 03:07:33;;;;;;;;;;;;;;;31.28;60.58;100996.75;4971103;28;69863;-40
2022/03/06 03:10:02;;;;;;;;;;;;;;;31.26;61.56;100992.63;4973115;28;67004;-37
2022/03/06 03:12:32;;;;;;;;;;;;;;;31.24;62.09;100992.03;4976792;27;70659;-39
2022/03/06 03:15:03;;;;;;;;;;;;;;;31.24;62.13;100983.91;4976501;28;66340;-39
2022/03/06 03:17:33;;;;;;;;;;;;;;;31.23;61.87;100979.50;4972982;28;68298;-37
2022/03/06 03:20:04;;;;;;;;;;;;;;;31.24;62.15;100986.59;4972977;28;65302;-40
2022/03/06 03:22:33;;;;;;;;;;;;;;;31.26;61.78;100976.34;4972086;28;69377;-39
2022/03/06 03:25:04;;;;;;;;;;;;;;;31.26;62.58;100981.78;4975557;28;65438;-38
2022/03/06 03:27:34;;;;;;;;;;;;;;;31.26;62.33;100970.94;4974990;28;69784;-39
2022/03/06 03:30:05;;;;;;;;;;;;;;;31.27;62.37;100972.63;4977259;27;66645;-37
2022/03/06 03:32:34;;;;;;;;;;;;;;;31.27;62.16;100962.59;4973754;28;70109;-38
2022/03/06 03:35:04;;;;;;;;;;;;;;;31.29;62.20;100963.22;4975911;28;65395;-39
2022/03/06 03:37:34;;;;;;;;;;;;;;;31.31;62.66;100968.41;4975213;28;70305;-38
2022/03/06 03:40:06;;;;;;;;;;;;;;;31.33;62.34;100960.88;4974754;28;66863;-38
2022/03/06 03:42:36;;;;;;;;;;;;;;;31.36;62.27;100955.03;4976706;28;68766;-38
2022/03/06 03:45:06;;;;;;;;;;;;;;;31.38;62.01;100947.53;4977559;28;66349;-37
2022/03/06 03:47:36;;;;;;;;;;;;;;;31.38;62.63;100948.34;4975745;28;70511;-37
2022/03/06 03:50:07;;;;;;;;;;;;;;;31.44;62.57;100941.22;4970054;28;65759;-39
2022/03/06 03:52:38;;;;;;;;;;;;;;;31.46;62.55;100938.28;4976217;28;69385;-38
2022/03/06 03:55:08;;;;;;;;;;;;;;;31.46;62.58;100939.13;4988989;27;65557;-38
2022/03/06 03:57:38;;;;;;;;;;;;;;;31.46;62.75;100933.69;4975945;28;71271;-38
2022/03/06 04:00:08;;;;;;;;;;;;;;;31.47;62.07;100935.34;4974126;28;65443;-37
2022/03/06 04:02:38;;;;;;;;;;;;;;;31.49;62.24;100930.53;4976646;28;69902;-37
2022/03/06 04:05:08;;;;;;;;;;;;;;;31.52;62.06;100921.13;4974590;27;65918;-38
2022/03/06 04:07:38;;;;;;;;;;;;;;;31.28;61.65;100884.81;4973946;28;70646;-38
2022/03/06 04:10:09;;;;;;;;;;;;;;;31.53;61.42;100929.00;4975401;28;65677;-37
2022/03/06 04:12:38;;;;;;;;;;;;;;;31.54;61.53;100914.44;4975762;28;70381;-36
2022/03/06 04:15:08;;;;;;;;;;;;;;;31.57;60.86;100902.31;4974872;28;66126;-38
2022/03/06 04:17:38;;;;;;;;;;;;;;;31.60;60.90;100908.09;4968827;28;70003;-38
2022/03/06 04:20:08;;;;;;;;;;;;;;;31.60;60.24;100908.09;4976169;28;66587;-37
2022/03/06 04:22:38;;;;;;;;;;;;;;;31.59;60.15;100901.03;4977400;28;70347;-38
2022/03/06 04:25:08;;;;;;;;;;;;;;;31.62;60.23;100894.31;4975838;28;65433;-37
2022/03/06 04:27:38;;;;;;;;;;;;;;;31.64;59.59;100888.66;4965923;28;69554;-37
2022/03/06 04:30:08;;;;;;;;;;;;;;;31.64;59.71;100885.94;4977685;28;65660;-38
2022/03/06 04:32:37;;;;;;;;;;;;;;;31.66;59.35;100870.28;5045994;27;70570;-38
2022/03/06 04:35:08;;;;;;;;;;;;;;;31.66;59.15;100867.59;4978472;28;66720;-37
2022/03/06 04:37:37;;;;;;;;;;;;;;;31.66;58.93;100862.16;4962458;28;70376;-42
2022/03/06 04:40:08;;;;;;;;;;;;;;;31.69;58.59;100861.69;4973552;28;66737;-37
2022/03/06 04:42:38;;;;;;;;;;;;;;;31.69;57.96;100850.84;4976934;28;70242;-38
2022/03/06 04:45:08;;;;;;;;;;;;;;;31.69;58.10;100840.84;4980087;28;66866;-37
2022/03/06 04:47:38;;;;;;;;;;;;;;;31.73;57.72;100846.63;4975403;28;69922;-38
2022/03/06 04:50:08;;;;;;;;;;;;;;;31.75;57.68;100837.22;4978151;28;66271;-36
2022/03/06 04:52:38;;;;;;;;;;;;;;;31.78;57.25;100844.06;4979124;27;70583;-37
2022/03/06 04:55:08;;;;;;;;;;;;;;;31.80;57.14;100847.38;4977362;28;66523;-37
2022/03/06 04:57:38;;;;;;;;;;;;;;;31.81;57.01;100849.03;4978909;28;70535;-38
2022/03/06 05:00:08;;;;;;;;;;;;;;;31.83;56.66;100836.91;4979189;27;66245;-36
2022/03/06 05:02:37;;;;;;;;;;;;;;;31.86;56.89;100824.78;4975383;28;70488;-36
2022/03/06 05:05:09;;;;;;;;;;;;;;;31.90;56.69;100820.56;4975686;28;66714;-37
2022/03/06 05:07:39;;;;;;;;;;;;;;;31.93;56.47;100809.28;4975746;28;69854;-37
2022/03/06 05:10:09;;;;;;;;;;;;;;;31.96;56.15;100808.81;4978410;27;66371;-37
2022/03/06 05:12:41;;;;;;;;;;;;;;;32.00;55.75;100804.56;4977676;28;70470;-39
2022/03/06 05:15:12;;;;;;;;;;;;;;;32.14;54.84;100798.97;4972579;28;65313;-39
2022/03/06 05:17:42;;;;;;;;;;;;;;;32.24;54.78;100797.34;4985919;28;71815;-39
2022/03/06 05:20:12;;;;;;;;;;;;;;;32.35;53.85;100789.47;4981485;28;66263;-39
2022/03/06 05:22:42;;;;;;;;;;;;;;;32.43;52.77;100792.69;4986545;27;69531;-39
2022/03/06 05:25:11;;;;;;;;;;;;;;;32.53;52.44;100786.69;4977790;28;65658;-39
2022/03/06 05:27:42;;;;;;;;;;;;;;;32.59;52.05;100779.50;4977528;28;70852;-37
2022/03/06 05:30:13;;;;;;;;;;;;;;;32.67;51.77;100766.41;4980436;27;66284;-39
2022/03/06 05:32:42;;;;;;;;;;;;;;;32.71;50.88;100755.91;4985828;28;69364;-41
2022/03/06 05:35:12;;;;;;;;;;;;;;;32.63;51.77;100758.97;4976922;28;65662;-39
2022/03/06 05:37:42;;;;;;;;;;;;;;;32.43;51.09;100754.66;4975250;28;69250;-40
2022/03/06 05:40:11;;;;;;;;;;;;;;;32.28;50.60;100762.41;4979041;28;66433;-41
2022/03/06 05:42:45;;;;;;;;;;;;;;;32.10;49.41;100751.66;4974981;28;68955;-40
2022/03/06 05:45:15;;;;;;;;;;;;;;;31.97;48.69;100748.06;4973241;28;66250;-40
2022/03/06 05:47:45;;;;;;;;;;;;;;;31.86;48.12;100740.69;4976314;28;70176;-41
2022/03/06 05:50:15;;;;;;;;;;;;;;;31.74;47.11;100742.53;4975564;28;66533;-39
2022/03/06 05:52:45;;;;;;;;;;;;;;;31.63;46.75;100727.88;4975431;28;70444;-39
2022/03/06 05:55:15;;;;;;;;;;;;;;;31.54;46.56;100735.47;4976674;28;66945;-39
2022/03/06 05:57:45;;;;;;;;;;;;;;;31.48;45.94;100727.41;4974733;28;70393;-40
2022/03/06 06:00:17;;;;;;;;;;;;;;;31.38;45.60;100719.84;4975247;28;65650;-39
2022/03/06 06:02:47;;;;;;;;;;;;;;;31.34;44.90;100713.16;4978222;27;71231;-39
2022/03/06 06:05:17;;;;;;;;;;;;;;;31.26;45.21;100710.78;4977317;27;65939;-39
2022/03/06 06:07:48;;;;;;;;;;;;;;;31.20;44.24;100706.25;4976289;28;69045;-37
2022/03/06 06:10:18;;;;;;;;;;;;;;;31.13;44.20;100696.34;4976081;27;66653;-38
2022/03/06 06:12:48;;;;;;;;;;;;;;;31.09;43.42;100700.56;4975493;28;69201;-38
2022/03/06 06:15:17;;;;;;;;;;;;;;;31.07;43.40;100691.00;4974020;28;66710;-38
2022/03/06 06:17:47;;;;;;;;;;;;;;;31.01;43.25;100684.63;4976396;28;70097;-37
2022/03/06 06:20:17;;;;;;;;;;;;;;;30.99;42.61;100678.59;4978582;28;65471;-39
2022/03/06 06:22:46;;;;;;;;;;;;;;;30.96;42.72;100681.75;4978524;28;69499;-39
2022/03/06 06:25:16;;;;;;;;;;;;;;;30.94;42.51;100673.84;4975319;28;66497;-39
2022/03/06 06:27:46;;;;;;;;;;;;;;;30.91;42.10;100666.16;4978694;28;69512;-39
2022/03/06 06:30:16;;;;;;;;;;;;;;;30.90;43.90;100658.28;4977901;28;66299;-38
2022/03/06 06:32:46;;;;;;;;;;;;;;;30.92;43.36;100648.03;4978390;28;70898;-39
2022/03/06 06:35:16;;;;;;;;;;;;;;;30.90;43.02;100644.75;4977268;28;66421;-38
2022/03/06 06:37:46;;;;;;;;;;;;;;;30.88;42.66;100638.72;4977698;28;69408;-38
2022/03/06 06:40:15;;;;;;;;;;;;;;;30.87;42.31;100637.03;4977232;28;66152;-39
2022/03/06 06:42:45;;;;;;;;;;;;;;;30.87;41.96;100632.47;4978738;28;69914;-39
2022/03/06 06:45:15;;;;;;;;;;;;;;;30.87;41.29;100626.22;4977934;28;66432;-39
2022/03/06 06:47:45;;;;;;;;;;;;;;;30.89;41.27;100621.41;4979010;28;70456;-38
2022/03/06 06:50:14;;;;;;;;;;;;;;;30.88;41.59;100620.56;4980917;27;65701;-38
2022/03/06 06:52:44;;;;;;;;;;;;;;;30.87;41.38;100618.09;4977846;28;70314;-38
2022/03/06 06:55:14;;;;;;;;;;;;;;;30.90;41.25;100614.94;4979475;28;66794;-38
2022/03/06 06:57:44;;;;;;;;;;;;;;;30.91;40.84;100603.88;4979136;28;70818;-39
2022/03/06 07:00:14;;;;;;;;;;;;;;;30.90;40.71;100604.13;4977827;28;66632;-39
2022/03/06 07:02:44;;;;;;;;;;;;;;;30.90;40.41;100604.13;4964446;28;69491;-38
2022/03/06 07:05:14;;;;;;;;;;;;;;;30.88;40.49;100603.50;4979217;28;65491;-39
2022/03/06 07:07:44;;;;;;;;;;;;;;;30.88;39.60;100606.22;4978957;28;70337;-39
2022/03/06 07:10:13;;;;;;;;;;;;;;;30.89;40.40;100605.16;4979380;28;66192;-39
2022/03/06 07:12:48;;;;;;;;;;;;;;;30.92;39.48;100597.41;4965249;28;69372;-39
2022/03/06 07:15:18;;;;;;;;;;;;;;;30.92;40.35;100596.56;4978398;28;66181;-39
2022/03/06 07:17:48;;;;;;;;;;;;;;;30.97;42.69;100588.59;4965152;28;70047;-39
2022/03/06 07:20:18;;;;;;;;;;;;;;;30.99;41.92;100586.50;4965514;28;66084;-39
2022/03/06 07:22:48;;;;;;;;;;;;;;;31.01;41.30;100588.94;4977940;28;69177;-38
2022/03/06 07:25:18;;;;;;;;;;;;;;;31.03;41.31;100576.84;4970952;28;66751;-39
2022/03/06 07:27:47;;;;;;;;;;;;;;;31.07;40.86;100588.06;4978621;28;70348;-39
2022/03/06 07:30:17;;;;;;;;;;;;;;;31.10;40.34;100582.19;4978954;28;65556;-38
2022/03/06 07:32:48;;;;;;;;;;;;;;;31.09;40.94;100581.38;4978573;28;70557;-38
2022/03/06 07:35:20;;;;;;;;;;;;;;;31.10;40.27;100580.28;4979511;28;66541;-38
2022/03/06 07:37:49;;;;;;;;;;;;;;;31.12;40.51;100572.78;4980558;28;69797;-38
2022/03/06 07:40:20;;;;;;;;;;;;;;;31.16;39.70;100581.25;4974449;28;66006;-39
2022/03/06 07:42:55;;;;;;;;;;;;;;;31.16;39.89;100582.09;4978987;28;70751;-39
2022/03/06 07:45:25;;;;;;;;;;;;;;;31.20;40.09;100582.44;4981876;28;65605;-39
2022/03/06 07:47:54;;;;;;;;;;;;;;;31.21;39.33;100570.56;4980142;28;70405;-37
2022/03/06 07:50:26;;;;;;;;;;;;;;;31.23;39.87;100576.59;4980285;28;66297;-39
2022/03/06 07:52:56;;;;;;;;;;;;;;;31.24;39.69;100566.56;4979171;28;69245;-38
2022/03/06 07:55:25;;;;;;;;;;;;;;;31.26;39.49;100562.56;4978505;28;66912;-38
2022/03/06 07:57:55;;;;;;;;;;;;;;;31.25;39.50;100562.78;4978963;28;69866;-39
2022/03/06 08:00:25;;;;;;;;;;;;;;;31.28;39.11;100551.50;4982442;27;66821;-39
2022/03/06 08:02:56;;;;;;;;;;;;;;;31.30;39.01;100554.81;4978234;27;70071;-36
2022/03/06 08:05:27;;;;;;;;;;;;;;;31.31;38.85;100556.44;4976419;28;66405;-37
2022/03/06 08:07:56;;;;;;;;;;;;;;;31.32;38.82;100548.09;4979179;28;70035;-38
2022/03/06 08:10:26;;;;;;;;;;;;;;;31.33;38.19;100549.75;4978774;28;65856;-38
2022/03/06 08:12:56;;;;;;;;;;;;;;;31.36;38.28;100545.78;4979434;27;69765;-37
2022/03/06 08:15:26;;;;;;;;;;;;;;;31.36;37.75;100543.06;4979150;27;66824;-38
2022/03/06 08:17:56;;;;;;;;;;;;;;;31.37;37.62;100550.13;4978544;28;70477;-38
2022/03/06 08:20:25;;;;;;;;;;;;;;;31.37;37.92;100552.84;4977056;28;65613;-39
2022/03/06 08:22:55;;;;;;;;;;;;;;;31.44;38.37;100544.63;4973429;28;69196;-38
2022/03/06 08:25:25;;;;;;;;;;;;;;;31.44;38.95;100550.03;4977476;28;66341;-38
2022/03/06 08:27:55;;;;;;;;;;;;;;;31.46;38.58;100547.94;4976948;28;69503;-37
2022/03/06 08:30:24;;;;;;;;;;;;;;;31.50;40.26;100547.22;4983538;28;65451;-38
2022/03/06 08:32:54;;;;;;;;;;;;;;;31.68;44.03;100556.31;4977724;27;70454;-37
2022/03/06 08:35:24;;;;;;;;;;;;;;;31.90;46.52;100549.28;4978128;28;65696;-40
2022/03/06 08:37:53;;;;;;;;;;;;;;;32.15;47.33;100556.38;4977107;28;70477;-39
2022/03/06 08:40:23;;;;;;;;;;;;;;;32.33;48.23;100544.56;4976712;28;66317;-39
2022/03/06 08:42:53;;;;;;;;;;;;;;;32.46;48.71;100542.47;4972580;28;70197;-39
2022/03/06 08:45:25;;;;;;;;;;;;;;;32.61;49.02;100543.84;4974865;28;67368;-41
2022/03/06 08:47:55;;;;;;;;;;;;;;;32.73;49.20;100541.91;4975156;28;69778;-41
2022/03/06 08:50:24;;;;;;;;;;;;;;;32.83;48.75;100541.28;4975197;27;66760;-38
2022/03/06 08:52:54;;;;;;;;;;;;;;;32.92;48.94;100546.09;4975068;28;70792;-40
2022/03/06 08:55:24;;;;;;;;;;;;;;;33.03;48.86;100540.88;4973352;28;66827;-38
2022/03/06 08:57:54;;;;;;;;;;;;;;;33.12;49.04;100542.13;4973403;27;70311;-39
2022/03/06 09:00:23;;;;;;;;;;;;;;;33.20;48.82;100547.19;4973440;28;66242;-40
2022/03/06 09:02:53;;;;;;;;;;;;;;;33.29;48.97;100551.16;4973291;28;70078;-42
2022/03/06 09:05:23;;;;;;;;;;;;;;;33.35;48.70;100550.19;4971474;28;66045;-40
2022/03/06 09:07:53;;;;;;;;;;;;;;;33.43;48.97;100539.97;4973226;28;69464;-41
2022/03/06 09:10:23;;;;;;;;;;;;;;;33.48;48.53;100546.31;4973052;27;66772;-39
2022/03/06 09:12:53;;;;;;;;;;;;;;;33.57;48.60;100552.19;4980138;28;70336;-39
2022/03/06 09:15:23;;;;;;;;;;;;;;;33.60;48.71;100551.72;4970797;28;66669;-38
2022/03/06 09:17:54;;;;;;;;;;;;;;;33.65;48.94;100562.66;4972138;28;70528;-40
2022/03/06 09:20:24;;;;;;;;;;;;;;;33.71;48.63;100564.41;4973169;28;66968;-39
2022/03/06 09:22:54;;;;;;;;;;;;;;;33.73;48.12;100573.13;4974748;28;70123;-39
2022/03/06 09:25:24;;;;;;;;;;;;;;;33.78;48.20;100567.78;4976118;27;67047;-39
2022/03/06 09:27:55;;;;;;;;;;;;;;;33.88;48.14;100577.16;4977444;27;70313;-39
2022/03/06 09:30:24;;;;;;;;;;;;;;;33.96;47.26;100579.47;4975710;27;66891;-39
2022/03/06 09:32:54;;;;;;;;;;;;;;;33.98;47.03;100583.59;4973951;28;70949;-39
2022/03/06 09:35:24;;;;;;;;;;;;;;;34.01;46.88;100579.56;4974941;28;67019;-39
2022/03/06 09:37:54;;;;;;;;;;;;;;;34.03;46.58;100591.03;4974805;28;69273;-39
2022/03/06 09:40:24;;;;;;;;;;;;;;;34.09;46.43;100581.06;4974596;28;66669;-39
2022/03/06 09:42:54;;;;;;;;;;;;;;;34.07;46.38;100584.03;4974954;28;70670;-39
2022/03/06 09:45:24;;;;;;;;;;;;;;;34.07;46.36;100592.19;4973720;28;65980;-39
2022/03/06 09:47:58;;;;;;;;;;;;;;;34.07;46.58;100594.91;4977113;27;70557;-39
2022/03/06 09:50:27;;;;;;;;;;;;;;;34.03;46.69;100605.44;4974627;28;66738;-39
2022/03/06 09:52:57;;;;;;;;;;;;;;;34.07;46.66;100604.97;4977286;27;69987;-40
2022/03/06 09:55:27;;;;;;;;;;;;;;;34.04;46.75;100617.16;4975897;28;67043;-39
2022/03/06 09:57:58;;;;;;;;;;;;;;;34.03;46.39;100608.19;4978654;28;70613;-40
2022/03/06 10:00:34;;;;;;;;;;;;;;;33.99;46.55;100608.91;4977487;28;65638;-39
2022/03/06 10:03:04;;;;;;;;;;;;;;;33.97;46.95;100617.34;4978832;28;69909;-39
2022/03/06 10:05:39;;;;;;;;;;;;;;;33.97;47.02;100627.41;4972729;28;66231;-39
2022/03/06 10:08:16;;;;;;;;;;;;;;;33.95;47.18;100624.09;4963829;28;70031;-39
2022/03/06 10:10:47;;;;;;;;;;;;;;;33.90;47.44;100624.81;4981933;27;66763;-40
2022/03/06 10:13:19;;;;;;;;;;;;;;;33.90;47.62;100632.16;4982286;27;69543;-40
2022/03/06 10:16:00;;;;;;;;;;;;;;;33.87;47.81;100635.38;4979195;28;66043;-39
2022/03/06 10:18:31;;;;;;;;;;;;;;;33.84;48.28;100639.41;4977982;28;69340;-39
2022/03/06 10:21:01;;;;;;;;;;;;;;;33.81;47.98;100635.28;4976712;28;65482;-40
2022/03/06 10:23:31;;;;;;;;;;;;;;;33.79;48.16;100642.91;4980216;28;70511;-39
2022/03/06 10:26:02;;;;;;;;;;;;;;;33.76;48.34;100632.47;4977938;28;65313;-39
2022/03/06 10:28:42;;;;;;;;;;;;;;;33.74;48.58;100639.25;4979556;27;71621;-39
2022/03/06 10:31:12;;;;;;;;;;;;;;;33.73;48.78;100643.03;4979358;28;66248;-39
2022/03/06 10:33:58;;;;;;;;;;;;;;;33.70;48.75;100643.53;4978147;28;63732;-39
2022/03/06 10:36:32;;;;;;;;;;;;;;;33.67;48.81;100650.28;4977613;28;65443;-39
2022/03/06 10:39:03;;;;;;;;;;;;;;;33.63;48.98;100660.03;4983109;28;69701;-39
2022/03/06 10:41:35;;;;;;;;;;;;;;;33.63;49.09;100660.03;4977251;28;66721;-38
2022/03/06 10:44:06;;;;;;;;;;;;;;;33.60;49.25;100663.22;4958579;28;69813;-39
2022/03/06 10:46:36;;;;;;;;;;;;;;;33.55;49.29;100669.41;4961079;28;66361;-39
2022/03/06 10:49:08;;;;;;;;;;;;;;;33.52;49.55;100667.16;4975271;28;68600;-40
2022/03/06 10:51:48;;;;;;;;;;;;;;;33.49;49.44;100672.22;4979620;28;66772;-40
2022/03/06 10:54:18;;;;;;;;;;;;;;;33.48;49.71;100679.53;4976695;28;69221;-39
2022/03/06 10:56:50;;;;;;;;;;;;;;;33.47;49.73;100674.38;4978853;28;66660;-40
2022/03/06 10:59:21;;;;;;;;;;;;;;;33.43;49.89;100687.59;4976378;28;70212;-40
2022/03/06 11:01:53;;;;;;;;;;;;;;;33.39;50.14;100686.44;4976318;28;66490;-41
2022/03/06 11:04:24;;;;;;;;;;;;;;;33.34;50.21;100689.88;4957904;28;70120;-39
2022/03/06 11:06:55;;;;;;;;;;;;;;;33.33;50.24;100698.31;4977039;28;65392;-39
2022/03/06 11:09:25;;;;;;;;;;;;;;;33.30;50.20;100701.50;4975148;28;69842;-39
2022/03/06 11:11:56;;;;;;;;;;;;;;;33.26;50.36;100706.56;4961160;28;66791;-39
2022/03/06 11:14:26;;;;;;;;;;;;;;;33.20;50.48;100704.81;4975623;28;69536;-38
2022/03/06 11:16:56;;;;;;;;;;;;;;;33.19;50.68;100708.63;4973463;27;67058;-39
2022/03/06 11:19:26;;;;;;;;;;;;;;;33.13;51.02;100701.44;4977914;27;69760;-39
2022/03/06 11:22:10;;;;;;;;;;;;;;;33.11;50.99;100706.28;4976782;28;66841;-41
2022/03/06 11:24:46;;;;;;;;;;;;;;;33.06;51.20;100708.88;4978986;28;70207;-39
2022/03/06 11:27:20;;;;;;;;;;;;;;;33.03;51.47;100709.38;4978244;28;66972;-39
2022/03/06 11:29:50;;;;;;;;;;;;;;;32.99;51.65;100708.13;4977052;28;70727;-39
2022/03/06 11:32:25;;;;;;;;;;;;;;;32.98;51.88;100717.38;4977134;28;66865;-40
2022/03/06 11:35:18;;;;;;;;;;;;;;;32.94;51.51;100722.47;4977540;28;69791;-39
2022/03/06 11:37:54;;;;;;;;;;;;;;;32.89;52.07;100722.34;4958939;28;67011;-40
2022/03/06 11:40:49;;;;;;;;;;;;;;;32.89;51.97;100723.16;4975587;28;70257;-38
2022/03/06 11:43:38;;;;;;;;;;;;;;;32.85;51.92;100729.34;4974499;28;66319;-39
2022/03/06 11:46:09;;;;;;;;;;;;;;;32.82;52.17;100732.50;4978229;28;69977;-41
2022/03/06 11:48:38;;;;;;;;;;;;;;;32.80;52.44;100743.63;4977137;28;66634;-40
2022/03/06 11:51:17;;;;;;;;;;;;;;;32.78;52.69;100745.72;4976057;28;70571;-39
2022/03/06 11:53:48;;;;;;;;;;;;;;;32.76;53.14;100747.84;4978276;28;66114;-39
2022/03/06 11:56:36;;;;;;;;;;;;;;;32.77;53.70;100759.56;4977678;28;70428;-43
2022/03/06 11:59:10;;;;;;;;;;;;;;;32.73;53.81;100764.63;4978541;28;66148;-40
2022/03/06 12:01:41;;;;;;;;;;;;;;;32.71;53.50;100766.78;4977574;28;69223;-43
2022/03/06 12:04:12;;;;;;;;;;;;;;;32.69;54.87;100771.59;4977877;28;65102;-39
2022/03/06 12:06:44;;;;;;;;;;;;;;;32.70;54.42;100770.53;4985657;27;69154;-41
2022/03/06 12:09:15;;;;;;;;;;;;;;;32.70;54.87;100776.78;4981656;28;66376;-41
2022/03/06 12:11:45;;;;;;;;;;;;;;;32.72;54.78;100774.66;4986488;27;70268;-40
2022/03/06 12:14:15;;;;;;;;;;;;;;;32.72;54.76;100773.84;4972092;28;66266;-40
2022/03/06 12:17:04;;;;;;;;;;;;;;;32.70;54.95;100776.78;4972877;28;69307;-39
2022/03/06 12:19:43;;;;;;;;;;;;;;;32.69;54.87;100777.03;4976499;28;67102;-39
2022/03/06 12:22:33;;;;;;;;;;;;;;;32.68;54.47;100778.06;4970702;28;69805;-39
2022/03/06 12:25:06;;;;;;;;;;;;;;;32.71;54.42;100783.06;4976593;28;67018;-39
2022/03/06 12:27:37;;;;;;;;;;;;;;;32.68;54.20;100794.38;4975216;28;70372;-39
2022/03/06 12:30:12;;;;;;;;;;;;;;;32.67;53.94;100795.44;4977466;28;66009;-40
2022/03/06 12:32:43;;;;;;;;;;;;;;;32.64;53.74;100793.19;4974152;28;69905;-39
2022/03/06 12:35:14;;;;;;;;;;;;;;;32.60;54.23;100797.47;4976519;28;66156;-41
2022/03/06 12:37:49;;;;;;;;;;;;;;;32.61;53.93;100799.09;4974122;28;69009;-40
2022/03/06 12:40:21;;;;;;;;;;;;;;;32.59;53.87;100812.09;4967416;28;66403;-40
2022/03/06 12:42:56;;;;;;;;;;;;;;;32.58;53.51;100815.88;4968542;28;68765;-41
2022/03/06 12:45:26;;;;;;;;;;;;;;;32.54;53.63;100820.09;4976142;28;65730;-41
2022/03/06 12:47:56;;;;;;;;;;;;;;;32.50;54.51;100822.47;4975390;28;70718;-43
2022/03/06 12:50:26;;;;;;;;;;;;;;;32.51;54.16;100826.00;4975682;28;65614;-42
2022/03/06 12:52:57;;;;;;;;;;;;;;;32.47;53.70;100831.91;4976409;28;70188;-42
2022/03/06 12:55:27;;;;;;;;;;;;;;;32.44;53.21;100832.34;4976380;27;68014;-41
2022/03/06 12:57:59;;;;;;;;;;;;;;;32.45;53.23;100838.59;4974091;27;70116;-42